Loisir ou Compétition : Rejoignez un Club de la Fédération

Résultats

43ième Grand Prix d'Agy 2018

AGY

MASS Hommes

Jury de Compétition

Délégué Technique :
DELOCHE CHRISTOPHE (MB)
D.T. Adjoint :
 
Dir. Epreuve :
DESGRANGES JEAN LOUIS (MB)

Caractéristiques de la Piste

Piste :
Site Nordique Agy
Distance :
5 KM km
Point Haut :
1340 m
Point Bas :
1250 m
Montée Tot. :
90 m
Montée Max. :
 
Homologation :
 

Pénalité Appliquée :
 
Coefficient :
 

Catégorie :
U14
Style :
C
Clt Dos Clt/Cat Code An Nom Prénom Com Club Temps Ecart Points
Classés
1 81 1/U14 FFS2670259 2004 BLANCHARD TITOUAN MB CS LA CLUSAZ 16:04.0 00:00.0
2 78 2/U14 FFS2681664 2004 PERROUD DORIAN MB SCNP ROCHOIS 16:09.9 00:05.9
3 82 3/U14 FFS2670262 2004 MICHEL JULIEN MB CS LA CLUSAZ 16:12.1 00:08.1
4 79 4/U14 FFS2661783 2004 JOUANNAUD LIONEL MB CS CHAMONIX 16:14.5 00:10.5
5 76 5/U14 FFS2682762 2004 CALANDRY RAPHAEL MB DRAGONS ANNY 16:15.3 00:11.3
6 77 6/U14 FFS2681320 2004 LEBARD JAN MB DRAGONS ANNY 16:24.1 00:20.1
7 93 7/U14 FFS2682010 2004 BONAVENT THOMAS MB SC D'AGY 16:25.6 00:21.6
8 108 8/U14 FFS2686663 2005 PERRILLAT BOITEUX ANTHONY MB SC GD BORNAN 16:33.4 00:29.4
9 75 9/U14 FFS2650224 2004 LAUSENAZ ANTHONY MB CHABLAIS NOR 16:33.8 00:29.8
10 101 10/U14 FFS2662962 2004 PANISSET SIMON MB SC GD BORNAN 16:49.2 00:45.2
11 80 11/U14 FFS2691994 2004 BELLE CLOT SAMUEL MB SCNP ROCHOIS 16:50.9 00:46.9
12 88 12/U14 FFS2686532 2004 BERGER HUGO MB DRAGONS ANNY 16:55.8 00:51.8
13 84 13/U14 FFS2670261 2004 FAVRE REGUILLON MATHELYO MB CS LA CLUSAZ 17:05.4 01:01.4
14 104 14/U14 FFS2681588 2004 GENTET RONAN MB CS ARGENTIER 17:10.3 01:06.3
15 117 15/U14 FFS2686681 2005 DELOCHE LINO MB SC GD BORNAN 17:15.5 01:11.5
16 89 16/U14 FFS2648791 2004 FORTINA ADAM MB SC CONTAMINE 17:20.2 01:16.2
17 92 17/U14 FFS2682178 2004 BIOLLAZ THOMAS MB PRAZ LYS-SOM 17:22.1 01:18.1
18 102 18/U14 FFS2686695 2005 PERRILLAT BOTTONET JUDICA MB SC GD BORNAN 17:22.8 01:18.8
19 85 19/U14 FFS2686938 2005 VALLEIX JORIS MB SCNP ROCHOIS 17:25.6 01:21.6
20 98 20/U14 FFS2680962 2004 PERRILLAT COLLOMB MATHEO MB SC GD BORNAN 17:26.4 01:22.4
21 105 21/U14 FFS2681663 2004 LEVET GASTON MB SCNP ROCHOIS 17:31.3 01:27.3
22 107 22/U14 FFS2686939 2005 GRENARD MAX MB SCNP ROCHOIS 17:37.3 01:33.3
23 95 23/U14 FFS2682024 2004 MILLAN SYLVAIN MB VILLARD/BOEG 17:37.7 01:33.7
24 83 24/U14 FFS2664692 2004 GROS MICHELE MB SC CONTAMINE 17:38.7 01:34.7
25 87 25/U14 FFS2676910 2005 CLAVEL SIMON MB CS LA CLUSAZ 17:39.1 01:35.1
26 112 26/U14 FFS2660349 2004 DELOCHE TRISTAN MB SC GD BORNAN 17:44.9 01:40.9
27 96 27/U14 FFS2681277 2004 PETILLEON TAO MB PRAZ LYS-SOM 17:45.8 01:41.8
28 100 28/U14 FFS2681260 2004 BOEHLER DORIAN MB LES GETS S.C 17:47.8 01:43.8
29 86 29/U14 FFS2671565 2005 COLOMBAN ALEXIS MB SCNP ROCHOIS 17:48.7 01:44.7
30 97 30/U14 FFS2686242 2005 VIGUIER QUENTIN MB CS LA CLUSAZ 17:51.8 01:47.8
31 90 31/U14 FFS2668666 2004 DOUKARI ALEXIS MB SALLANCHES 17:53.3 01:49.3
32 91 32/U14 FFS2667744 2005 BIZZOCCHI ESTEBAN MB SC D'AGY 17:54.0 01:50.0
33 111 33/U14 FFS2678952 2004 FAVRE BONVIN TITOUAN MB SC GD BORNAN 18:08.4 02:04.4
34 110 34/U14 FFS2686672 2005 BROCHANT LUCAS MB SC GD BORNAN 18:09.1 02:05.1
35 114 35/U14 FFS2686793 2005 MARIE ADELIN MB SC D'AGY 18:11.7 02:07.7
36 103 36/U14 FFS2673756 2005 PEYRON ARTHUR MB CS CHAMONIX 18:13.6 02:09.6
37 119 37/U14 FFS2684607 2004 ADAM NINO MB CS CHAMONIX 18:25.4 02:21.4
38 161 38/U14 FFS2654656 2004 KUNTZINGER TOM SA CN REVARD 18:26.6 02:22.6
39 149 39/U14 FFS2683536 2004 JACQUEMARD SWAN MB CS ARGENTIER 18:37.3 02:33.3
40 106 40/U14 FFS2686539 2005 LACROIX MATTHIAS MB DRAGONS ANNY 18:38.8 02:34.8
41 138 41/U14 FFS2681804 2004 STIERLI LOIC MB VILLARD/BOEG 18:48.3 02:44.3
42 127 42/U14 FFS2666324 2005 FAVRE FELIX KILLIAN MB SC GD BORNAN 19:01.8 02:57.8
43 137 43/U14 FFS2669366 2004 ROBERT ELOUAN MB SALLANCHES 19:02.9 02:58.9
44 118 44/U14 FFS2686260 2005 BOSSUT AUGUSTIN MB PRAZ LYS-SOM 19:04.1 03:00.1
45 129 45/U14 FFS2681002 2004 GONIN LEANDRE MB SC GD BORNAN 19:05.3 03:01.3
46 109 46/U14 FFS2668129 2004 BAUD CESAR MB LES GETS S.C 19:08.5 03:04.5
47 120 47/U14 FFS2674370 2004 PINEL THIBAULT MB SALLANCHES 19:09.6 03:05.6
48 113 48/U14 FFS2663071 2004 BEGUEX LOUIS MB VILLARD/BOEG 19:10.7 03:06.7
49 126 49/U14 FFS2686543 2005 ROMERI NATHAN MB DRAGONS ANNY 19:17.2 03:13.2
50 135 50/U14 FFS2687035 2005 CORNU MATHIEU MB CS CHAMONIX 19:17.9 03:13.9
51 140 51/U14 FFS2687103 2005 MOREAU SIMEON MB SCNP ROCHOIS 19:18.3 03:14.3
52 132 52/U14 FFS2686282 2004 DIERSTEIN ARTHUR MB CNG 19:19.4 03:15.4
53 115 53/U14 FFS2686940 2005 LEVET PROSPER MB SCNP ROCHOIS 19:23.7 03:19.7
54 121 54/U14 FFS2682008 2004 PRIVE CONSTANT MB SC D'AGY 19:29.4 03:25.4
55 136 55/U14 FFS2681171 2005 LUZET HUGO MB CS LA CLUSAZ 19:34.1 03:30.1
56 150 56/U14 FFS2686538 2005 JOMIER LOIS MB DRAGONS ANNY 19:37.1 03:33.1
57 123 57/U14 FFS2660905 2004 FAVERJON VICTOR MB VILLARD/BOEG 19:38.4 03:34.4
58 139 58/U14 FFS2688043 2005 MAGNIEZ OSCAR MB DRAGONS ANNY 19:38.9 03:34.9
59 130 59/U14 FFS2686535 2005 FAILLENET JORIS MB DRAGONS ANNY 19:45.9 03:41.9
60 134 60/U14 FFS2687455 2005 FOUCAULT LECERF MAE MB SCNP ROCHOIS 19:46.3 03:42.3
61 131 61/U14 FFS2681321 2004 BETRIX ALEXIS MB CHABLAIS NOR 19:54.5 03:50.5
62 156 62/U14 FFS2666956 2004 BLAIZE REMI MB VILLARD/BOEG 20:00.2 03:56.2
63 167 63/U14 FFS2682466 2004 THEVENOD JULES MB VILLARD/BOEG 20:09.1 04:05.1
64 116 64/U14 FFS2658419 2004 MAGRO FAUSTO MB CS MEGEVE 20:14.0 04:10.0
65 148 65/U14 FFS2687102 2005 SYLVESTRE BARON PAUL MB SCNP ROCHOIS 20:19.2 04:15.2
66 143 66/U14 FFS2686542 2005 PEYRET TILIEN MB DRAGONS ANNY 20:19.9 04:15.9
67 125 67/U14 FFS2686259 2005 DUCREY BRICE MB PRAZ LYS-SOM 20:20.5 04:16.5
68 128 68/U14 FFS2681169 2004 JOSSERAND ANTOINE MB CS LA CLUSAZ 20:26.2 04:22.2
69 151 69/U14 FFS2690183 2004 BILDGEN TIMOTHE MB VILLARD/BOEG 20:26.8 04:22.8
70 141 70/U14 FFS2681304 2005 PERSONNAZ LOAN MB DRAGONS ANNY 20:27.5 04:23.5
71 124 71/U14 FFS2688678 2005 REPELLIN CHARLES MB VILLARD/BOEG 20:38.3 04:34.3
72 133 72/U14 FFS2682026 2004 FOURREAUX EVANN MB VILLARD/BOEG 20:40.2 04:36.2
73 147 73/U14 FFS2692552 2005 PETROD BASTIEN MB CNG 20:53.1 04:49.1
74 144 74/U14 FFS2686262 2005 LESSERTISSEUX VALENTIN MB PRAZ LYS-SOM 20:54.4 04:50.4
75 145 75/U14 FFS2686544 2005 SOULAS MALO MB DRAGONS ANNY 20:59.7 04:55.7
76 159 76/U14 FFS2686801 2005 GARBY KEVIN MB SC D'AGY 21:15.7 05:11.7
77 163 77/U14 FFS2686905 2005 MIR EMARATI MILO MB CS CHAMONIX 21:16.3 05:12.3
78 162 78/U14 FFS2686914 2005 LESCOUFF RONAN MB CS CHAMONIX 21:26.4 05:22.4
79 146 79/U14 FFS2690481 2005 THABUIS BASILE MB VILLARD/BOEG 21:27.7 05:23.7
80 153 80/U14 FFS2682725 2004 COINTEPAS COLIN MB CNG 21:41.0 05:37.0
81 99 81/U14 FFS2687034 2005 FIVEL DEMORET HUGO MB SC CONTAMINE 21:47.3 05:43.3
82 165 82/U14 FFS2692551 2004 PEIGNE VICTOR MB CNG 21:51.3 05:47.3
83 166 83/U14 FFS2686853 2004 PIERS NOE MB CNG 22:02.6 05:58.6
84 160 84/U14 FFS2690478 2005 GROMAIRE THYLIO MB VILLARD/BOEG 22:23.0 06:19.0
85 158 85/U14 FFS2686284 2004 DIERSTEIN CLEMENT MB CNG 22:25.0 06:21.0
86 152 86/U14 FFS2692554 2005 ZAVARISE NOAH MB CNG 22:45.7 06:41.7
87 157 87/U14 FFS2676738 2005 CHETAIL JULES MB CS MEGEVE 23:38.6 07:34.6
88 169 88/U14 FFS2661050 2004 ZANCHI LOUIS MB VILLARD/BOEG 25:10.2 09:06.2
89 168 89/U14 FFS2687856 2005 VEISY KILLIAN MB EN HT GIFFRE 26:42.2 10:38.2
90 164 90/U14 FFS2692697 2004 NEGRO NICOLAS MB SC D'AGY 27:07.9 11:03.9
Non partants
94 FFS2663262 2004 LANVERS MATTEO MB VILLARD/BOEG
122 FFS2686795 2005 DELERCE THIBAULT MB SC D'AGY
142 FFS2690844 2005 HAEBERLI ARTHUR MB CS LA CLUSAZ
154 FFS2681813 2004 ANGRAND LOUIS MB VILLARD/BOEG
155 FFS2686531 2005 BALDUCCI UGO MB DRAGONS ANNY